To NAV CANADA Home Page Login to a new session Search on AWWS site Disclaimer Vers la page française équivalente Tips FAQ What's new on the site To the Forecasts and Observations / NOTAM section To "File a Flight Plan" website Publications and other links Update of the User's profile FIC Telephone Numbers My Weather Data Folder Route Weather Data Regional Weather Data Local Weather Data To the Forecasts and Observations / NOTAM section
Request Generated 10/27/2020 at 08:41:02 UTC . Weather information available at that time is displayed.

METAR/TAF

PETERBOROUGH/ON    (show WxCam)

METAR CYPQ 270800Z AUTO 02006KT 9SM OVC022 04/03 A3023 RMK SLP244=
METAR CYPQ 270700Z AUTO 02003KT 350V050 9SM BKN022 OVC055 04/04 A3023 RMK SLP243=
SPECI CYPQ 270605Z AUTO 00000KT 9SM BKN017 BKN024 OVC050 04/04 A3021 RMK SLP237=
METAR CYPQ 270600Z AUTO 00000KT 9SM -RA SCT017 BKN024 BKN037 OVC048 04/04 A3021 RMK SLP237=

*** REMARK        : Forecast period has ended; this was the last TAF issued
*** REMARQUE : La période de prévision est échue; ceci était le dernier TAF qui a été émis
TAF CYPQ 261938Z 2620/2702 VRB03KT P6SM SCT008 OVC060 TEMPO 2620/2702
OVC008
RMK FCST BASED ON AUTO OBS. NXT FCST WILL BE ISSUED AT 270945Z=
Your time UTC time
Weather data provided by Environment Canada and NAV CANADA